sensor_id;sensor_type;location;lat;lon;timestamp;temperature;humidity
24085;DHT22;12268;52.110;5.548;2024-02-26T00:01:36;7.20;99.90
24085;DHT22;12268;52.110;5.548;2024-02-26T00:04:02;7.20;99.90
24085;DHT22;12268;52.110;5.548;2024-02-26T00:06:31;7.60;99.90
24085;DHT22;12268;52.110;5.548;2024-02-26T00:08:57;7.70;99.90
24085;DHT22;12268;52.110;5.548;2024-02-26T00:11:23;7.40;99.90
24085;DHT22;12268;52.110;5.548;2024-02-26T00:13:48;7.30;99.90
24085;DHT22;12268;52.110;5.548;2024-02-26T00:16:14;7.50;99.90
24085;DHT22;12268;52.110;5.548;2024-02-26T00:18:40;7.60;99.90
24085;DHT22;12268;52.110;5.548;2024-02-26T00:21:05;7.50;99.90
24085;DHT22;12268;52.110;5.548;2024-02-26T00:23:31;7.30;99.90
24085;DHT22;12268;52.110;5.548;2024-02-26T00:25:57;7.10;99.90
24085;DHT22;12268;52.110;5.548;2024-02-26T00:28:23;7.00;99.90
24085;DHT22;12268;52.110;5.548;2024-02-26T00:30:50;7.10;99.90
24085;DHT22;12268;52.110;5.548;2024-02-26T00:33:17;7.10;99.90
24085;DHT22;12268;52.110;5.548;2024-02-26T00:35:42;7.00;99.90
24085;DHT22;12268;52.110;5.548;2024-02-26T00:38:08;7.00;99.90
24085;DHT22;12268;52.110;5.548;2024-02-26T00:40:33;7.40;99.90
24085;DHT22;12268;52.110;5.548;2024-02-26T00:42:59;7.60;99.90
24085;DHT22;12268;52.110;5.548;2024-02-26T00:45:25;7.80;99.90
24085;DHT22;12268;52.110;5.548;2024-02-26T00:47:51;8.00;99.90
24085;DHT22;12268;52.110;5.548;2024-02-26T00:50:16;7.80;99.90
24085;DHT22;12268;52.110;5.548;2024-02-26T00:52:42;7.90;99.90
24085;DHT22;12268;52.110;5.548;2024-02-26T00:55:08;8.00;99.90
24085;DHT22;12268;52.110;5.548;2024-02-26T00:57:34;7.80;99.90
24085;DHT22;12268;52.110;5.548;2024-02-26T00:59:59;7.70;99.90
24085;DHT22;12268;52.110;5.548;2024-02-26T01:02:26;8.00;99.90
24085;DHT22;12268;52.110;5.548;2024-02-26T01:04:52;7.70;99.90
24085;DHT22;12268;52.110;5.548;2024-02-26T01:07:17;7.80;99.90
24085;DHT22;12268;52.110;5.548;2024-02-26T01:09:43;7.90;99.90
24085;DHT22;12268;52.110;5.548;2024-02-26T01:12:08;7.80;99.90
24085;DHT22;12268;52.110;5.548;2024-02-26T01:14:34;7.80;99.90
24085;DHT22;12268;52.110;5.548;2024-02-26T01:17:00;8.20;99.90
24085;DHT22;12268;52.110;5.548;2024-02-26T01:19:25;8.20;99.90
24085;DHT22;12268;52.110;5.548;2024-02-26T01:21:51;8.30;99.90
24085;DHT22;12268;52.110;5.548;2024-02-26T01:24:16;8.50;99.90
24085;DHT22;12268;52.110;5.548;2024-02-26T01:26:42;8.50;99.90
24085;DHT22;12268;52.110;5.548;2024-02-26T01:29:08;8.40;99.90
24085;DHT22;12268;52.110;5.548;2024-02-26T01:31:34;8.50;99.90
24085;DHT22;12268;52.110;5.548;2024-02-26T01:34:00;8.60;99.90
24085;DHT22;12268;52.110;5.548;2024-02-26T01:36:25;8.50;99.90
24085;DHT22;12268;52.110;5.548;2024-02-26T01:38:51;8.80;99.90
24085;DHT22;12268;52.110;5.548;2024-02-26T01:41:17;8.60;99.90
24085;DHT22;12268;52.110;5.548;2024-02-26T01:43:42;8.60;99.90
24085;DHT22;12268;52.110;5.548;2024-02-26T01:46:13;8.40;99.90
24085;DHT22;12268;52.110;5.548;2024-02-26T01:48:40;8.50;99.90
24085;DHT22;12268;52.110;5.548;2024-02-26T01:51:06;8.60;99.90
24085;DHT22;12268;52.110;5.548;2024-02-26T01:53:31;8.60;99.90
24085;DHT22;12268;52.110;5.548;2024-02-26T01:55:58;8.80;99.90
24085;DHT22;12268;52.110;5.548;2024-02-26T01:58:23;8.80;99.90
24085;DHT22;12268;52.110;5.548;2024-02-26T02:00:49;8.90;99.90
24085;DHT22;12268;52.110;5.548;2024-02-26T02:03:15;8.40;99.90
24085;DHT22;12268;52.110;5.548;2024-02-26T02:05:41;8.40;99.90
24085;DHT22;12268;52.110;5.548;2024-02-26T02:08:11;8.50;99.90
24085;DHT22;12268;52.110;5.548;2024-02-26T02:10:38;8.20;99.90
24085;DHT22;12268;52.110;5.548;2024-02-26T02:13:04;7.80;99.90
24085;DHT22;12268;52.110;5.548;2024-02-26T02:15:29;8.10;99.90
24085;DHT22;12268;52.110;5.548;2024-02-26T02:17:55;8.20;99.90
24085;DHT22;12268;52.110;5.548;2024-02-26T02:20:34;8.20;99.90
24085;DHT22;12268;52.110;5.548;2024-02-26T02:23:00;8.50;99.90
24085;DHT22;12268;52.110;5.548;2024-02-26T02:25:25;8.20;99.90
24085;DHT22;12268;52.110;5.548;2024-02-26T02:27:53;8.10;99.90
24085;DHT22;12268;52.110;5.548;2024-02-26T02:30:20;8.00;99.90
24085;DHT22;12268;52.110;5.548;2024-02-26T02:32:46;8.00;99.90
24085;DHT22;12268;52.110;5.548;2024-02-26T02:35:12;7.90;99.90
24085;DHT22;12268;52.110;5.548;2024-02-26T02:37:38;8.10;99.90
24085;DHT22;12268;52.110;5.548;2024-02-26T02:40:04;8.00;99.90
24085;DHT22;12268;52.110;5.548;2024-02-26T02:42:30;7.70;99.90
24085;DHT22;12268;52.110;5.548;2024-02-26T02:44:56;7.70;99.90
24085;DHT22;12268;52.110;5.548;2024-02-26T02:47:21;7.80;99.90
24085;DHT22;12268;52.110;5.548;2024-02-26T02:49:47;7.60;99.90
24085;DHT22;12268;52.110;5.548;2024-02-26T02:52:13;7.70;99.90
24085;DHT22;12268;52.110;5.548;2024-02-26T02:54:38;7.90;99.90
24085;DHT22;12268;52.110;5.548;2024-02-26T02:57:07;7.50;99.90
24085;DHT22;12268;52.110;5.548;2024-02-26T02:59:32;7.40;99.90
24085;DHT22;12268;52.110;5.548;2024-02-26T03:01:58;7.50;99.90
24085;DHT22;12268;52.110;5.548;2024-02-26T03:04:23;7.70;99.90
24085;DHT22;12268;52.110;5.548;2024-02-26T03:06:49;7.80;99.90
24085;DHT22;12268;52.110;5.548;2024-02-26T03:09:15;8.00;99.90
24085;DHT22;12268;52.110;5.548;2024-02-26T03:11:40;8.10;99.90
24085;DHT22;12268;52.110;5.548;2024-02-26T03:14:06;8.20;99.90
24085;DHT22;12268;52.110;5.548;2024-02-26T03:16:32;7.80;99.90
24085;DHT22;12268;52.110;5.548;2024-02-26T03:18:57;7.60;99.90
24085;DHT22;12268;52.110;5.548;2024-02-26T03:21:25;7.90;99.90
24085;DHT22;12268;52.110;5.548;2024-02-26T03:23:50;7.50;99.90
24085;DHT22;12268;52.110;5.548;2024-02-26T03:26:16;7.20;99.90
24085;DHT22;12268;52.110;5.548;2024-02-26T03:28:42;7.40;99.90
24085;DHT22;12268;52.110;5.548;2024-02-26T03:31:07;7.80;99.90
24085;DHT22;12268;52.110;5.548;2024-02-26T03:33:34;8.30;99.90
24085;DHT22;12268;52.110;5.548;2024-02-26T03:35:59;8.40;99.90
24085;DHT22;12268;52.110;5.548;2024-02-26T03:38:25;8.70;99.90
24085;DHT22;12268;52.110;5.548;2024-02-26T03:40:51;8.80;99.90
24085;DHT22;12268;52.110;5.548;2024-02-26T03:43:16;8.70;99.90
24085;DHT22;12268;52.110;5.548;2024-02-26T03:45:42;8.70;99.90
24085;DHT22;12268;52.110;5.548;2024-02-26T03:48:08;8.60;99.90
24085;DHT22;12268;52.110;5.548;2024-02-26T03:50:33;8.10;99.90
24085;DHT22;12268;52.110;5.548;2024-02-26T03:53:00;8.00;99.90
24085;DHT22;12268;52.110;5.548;2024-02-26T03:55:25;8.10;99.90
24085;DHT22;12268;52.110;5.548;2024-02-26T03:57:51;8.10;99.90
24085;DHT22;12268;52.110;5.548;2024-02-26T04:00:18;8.20;99.90
24085;DHT22;12268;52.110;5.548;2024-02-26T04:02:43;8.50;99.90
24085;DHT22;12268;52.110;5.548;2024-02-26T04:05:10;8.30;99.90
24085;DHT22;12268;52.110;5.548;2024-02-26T04:07:36;8.40;99.90
24085;DHT22;12268;52.110;5.548;2024-02-26T04:10:01;8.30;99.90
24085;DHT22;12268;52.110;5.548;2024-02-26T04:12:30;8.20;99.90
24085;DHT22;12268;52.110;5.548;2024-02-26T04:14:56;8.30;99.90
24085;DHT22;12268;52.110;5.548;2024-02-26T04:17:21;8.50;99.90
24085;DHT22;12268;52.110;5.548;2024-02-26T04:19:47;8.50;99.90
24085;DHT22;12268;52.110;5.548;2024-02-26T04:22:12;8.10;99.90
24085;DHT22;12268;52.110;5.548;2024-02-26T04:24:38;7.80;99.90
24085;DHT22;12268;52.110;5.548;2024-02-26T04:27:04;7.70;99.90
24085;DHT22;12268;52.110;5.548;2024-02-26T04:29:29;7.30;99.90
24085;DHT22;12268;52.110;5.548;2024-02-26T04:31:55;7.40;99.90
24085;DHT22;12268;52.110;5.548;2024-02-26T04:34:21;7.70;99.90
24085;DHT22;12268;52.110;5.548;2024-02-26T04:36:46;7.60;99.90
24085;DHT22;12268;52.110;5.548;2024-02-26T04:39:13;7.60;99.90
24085;DHT22;12268;52.110;5.548;2024-02-26T04:41:39;7.60;99.90
24085;DHT22;12268;52.110;5.548;2024-02-26T04:44:05;7.90;99.90
24085;DHT22;12268;52.110;5.548;2024-02-26T04:46:30;8.20;99.90
24085;DHT22;12268;52.110;5.548;2024-02-26T04:48:56;8.20;99.90
24085;DHT22;12268;52.110;5.548;2024-02-26T04:51:22;8.50;99.90
24085;DHT22;12268;52.110;5.548;2024-02-26T04:53:47;8.70;99.90
24085;DHT22;12268;52.110;5.548;2024-02-26T04:56:13;8.90;99.90
24085;DHT22;12268;52.110;5.548;2024-02-26T04:58:38;9.00;99.90
24085;DHT22;12268;52.110;5.548;2024-02-26T05:01:05;8.80;99.90
24085;DHT22;12268;52.110;5.548;2024-02-26T05:03:31;8.90;99.90
24085;DHT22;12268;52.110;5.548;2024-02-26T05:05:56;9.10;99.90
24085;DHT22;12268;52.110;5.548;2024-02-26T05:08:23;9.20;99.90
24085;DHT22;12268;52.110;5.548;2024-02-26T05:10:49;9.20;99.90
24085;DHT22;12268;52.110;5.548;2024-02-26T05:13:14;9.20;99.90
24085;DHT22;12268;52.110;5.548;2024-02-26T05:15:43;8.90;99.90
24085;DHT22;12268;52.110;5.548;2024-02-26T05:18:09;9.10;99.90
24085;DHT22;12268;52.110;5.548;2024-02-26T05:20:34;9.10;99.90
24085;DHT22;12268;52.110;5.548;2024-02-26T05:23:01;8.70;99.90
24085;DHT22;12268;52.110;5.548;2024-02-26T05:25:27;8.60;99.90
24085;DHT22;12268;52.110;5.548;2024-02-26T05:27:52;8.70;99.90
24085;DHT22;12268;52.110;5.548;2024-02-26T05:30:18;8.70;99.90
24085;DHT22;12268;52.110;5.548;2024-02-26T05:32:43;8.60;99.90
24085;DHT22;12268;52.110;5.548;2024-02-26T05:35:09;8.40;99.90
24085;DHT22;12268;52.110;5.548;2024-02-26T05:37:35;8.50;99.90
24085;DHT22;12268;52.110;5.548;2024-02-26T05:40:00;8.60;99.90
24085;DHT22;12268;52.110;5.548;2024-02-26T05:42:26;8.90;99.90
24085;DHT22;12268;52.110;5.548;2024-02-26T05:44:52;8.80;99.90
24085;DHT22;12268;52.110;5.548;2024-02-26T05:47:17;8.70;99.90
24085;DHT22;12268;52.110;5.548;2024-02-26T05:49:43;8.40;99.90
24085;DHT22;12268;52.110;5.548;2024-02-26T05:52:09;8.40;99.90
24085;DHT22;12268;52.110;5.548;2024-02-26T05:54:34;8.60;99.90
24085;DHT22;12268;52.110;5.548;2024-02-26T05:57:00;8.60;99.90
24085;DHT22;12268;52.110;5.548;2024-02-26T05:59:26;8.70;99.90
24085;DHT22;12268;52.110;5.548;2024-02-26T06:01:52;8.70;99.90
24085;DHT22;12268;52.110;5.548;2024-02-26T06:04:17;8.90;99.90
24085;DHT22;12268;52.110;5.548;2024-02-26T06:06:44;8.80;99.90
24085;DHT22;12268;52.110;5.548;2024-02-26T06:09:11;8.90;99.90
24085;DHT22;12268;52.110;5.548;2024-02-26T06:11:37;8.70;99.90
24085;DHT22;12268;52.110;5.548;2024-02-26T06:14:02;8.60;99.90
24085;DHT22;12268;52.110;5.548;2024-02-26T06:16:28;8.80;99.90
24085;DHT22;12268;52.110;5.548;2024-02-26T06:18:54;8.80;99.90
24085;DHT22;12268;52.110;5.548;2024-02-26T06:21:19;8.90;99.90
24085;DHT22;12268;52.110;5.548;2024-02-26T06:23:45;8.80;99.90
24085;DHT22;12268;52.110;5.548;2024-02-26T06:26:10;8.80;99.90
24085;DHT22;12268;52.110;5.548;2024-02-26T06:28:36;8.70;99.90
24085;DHT22;12268;52.110;5.548;2024-02-26T06:31:05;8.80;99.90
24085;DHT22;12268;52.110;5.548;2024-02-26T06:33:31;8.80;99.90
24085;DHT22;12268;52.110;5.548;2024-02-26T06:35:56;9.00;99.90
24085;DHT22;12268;52.110;5.548;2024-02-26T06:38:22;9.20;99.90
24085;DHT22;12268;52.110;5.548;2024-02-26T06:40:48;9.20;99.90
24085;DHT22;12268;52.110;5.548;2024-02-26T06:43:13;9.20;99.90
24085;DHT22;12268;52.110;5.548;2024-02-26T06:45:39;8.90;99.90
24085;DHT22;12268;52.110;5.548;2024-02-26T06:48:05;9.00;99.90
24085;DHT22;12268;52.110;5.548;2024-02-26T06:50:30;8.90;99.90
24085;DHT22;12268;52.110;5.548;2024-02-26T06:52:56;8.80;99.90
24085;DHT22;12268;52.110;5.548;2024-02-26T06:55:21;9.00;99.90
24085;DHT22;12268;52.110;5.548;2024-02-26T06:57:47;8.60;99.90
24085;DHT22;12268;52.110;5.548;2024-02-26T07:00:13;8.30;99.90
24085;DHT22;12268;52.110;5.548;2024-02-26T07:02:42;8.10;99.90
24085;DHT22;12268;52.110;5.548;2024-02-26T07:05:08;8.20;99.90
24085;DHT22;12268;52.110;5.548;2024-02-26T07:07:33;8.60;99.90
24085;DHT22;12268;52.110;5.548;2024-02-26T07:09:59;8.60;99.90
24085;DHT22;12268;52.110;5.548;2024-02-26T07:12:25;8.60;99.90
24085;DHT22;12268;52.110;5.548;2024-02-26T07:14:51;8.80;99.90
24085;DHT22;12268;52.110;5.548;2024-02-26T07:17:17;8.50;99.90
24085;DHT22;12268;52.110;5.548;2024-02-26T07:19:43;8.60;99.90
24085;DHT22;12268;52.110;5.548;2024-02-26T07:22:09;8.70;99.90
24085;DHT22;12268;52.110;5.548;2024-02-26T07:24:34;8.50;99.90
24085;DHT22;12268;52.110;5.548;2024-02-26T07:27:00;8.40;99.90
24085;DHT22;12268;52.110;5.548;2024-02-26T07:29:25;8.50;99.90
24085;DHT22;12268;52.110;5.548;2024-02-26T07:31:51;8.40;99.90
24085;DHT22;12268;52.110;5.548;2024-02-26T07:34:17;8.70;99.90
24085;DHT22;12268;52.110;5.548;2024-02-26T07:36:42;8.80;99.90
24085;DHT22;12268;52.110;5.548;2024-02-26T07:39:08;8.70;99.90
24085;DHT22;12268;52.110;5.548;2024-02-26T07:41:33;8.60;99.90
24085;DHT22;12268;52.110;5.548;2024-02-26T07:43:59;8.70;99.90
24085;DHT22;12268;52.110;5.548;2024-02-26T07:46:25;8.70;99.90
24085;DHT22;12268;52.110;5.548;2024-02-26T07:48:50;8.90;99.90
24085;DHT22;12268;52.110;5.548;2024-02-26T07:51:16;8.90;99.90
24085;DHT22;12268;52.110;5.548;2024-02-26T07:53:42;8.70;99.90
24085;DHT22;12268;52.110;5.548;2024-02-26T07:56:09;8.50;99.90
24085;DHT22;12268;52.110;5.548;2024-02-26T07:58:34;8.70;99.90
24085;DHT22;12268;52.110;5.548;2024-02-26T08:01:00;8.60;99.90
24085;DHT22;12268;52.110;5.548;2024-02-26T08:03:26;8.70;99.90
24085;DHT22;12268;52.110;5.548;2024-02-26T08:05:51;8.70;99.90
24085;DHT22;12268;52.110;5.548;2024-02-26T08:08:17;9.00;99.90
24085;DHT22;12268;52.110;5.548;2024-02-26T08:10:43;9.00;99.90
24085;DHT22;12268;52.110;5.548;2024-02-26T08:13:09;8.80;99.90
24085;DHT22;12268;52.110;5.548;2024-02-26T08:15:35;8.70;99.90
24085;DHT22;12268;52.110;5.548;2024-02-26T08:18:02;8.30;99.90
24085;DHT22;12268;52.110;5.548;2024-02-26T08:20:29;8.50;99.90
24085;DHT22;12268;52.110;5.548;2024-02-26T08:22:55;8.50;99.90
24085;DHT22;12268;52.110;5.548;2024-02-26T08:25:20;8.70;99.90
24085;DHT22;12268;52.110;5.548;2024-02-26T08:27:46;8.70;99.90
24085;DHT22;12268;52.110;5.548;2024-02-26T08:30:14;9.10;99.90
24085;DHT22;12268;52.110;5.548;2024-02-26T08:32:45;9.30;99.90
24085;DHT22;12268;52.110;5.548;2024-02-26T08:35:11;9.30;99.90
24085;DHT22;12268;52.110;5.548;2024-02-26T08:37:37;9.10;99.90
24085;DHT22;12268;52.110;5.548;2024-02-26T08:40:03;9.10;99.90
24085;DHT22;12268;52.110;5.548;2024-02-26T08:42:31;9.20;99.90
24085;DHT22;12268;52.110;5.548;2024-02-26T08:44:57;9.20;99.90
24085;DHT22;12268;52.110;5.548;2024-02-26T08:47:25;9.30;99.90
24085;DHT22;12268;52.110;5.548;2024-02-26T08:49:51;9.40;99.90
24085;DHT22;12268;52.110;5.548;2024-02-26T08:52:16;9.40;99.90
24085;DHT22;12268;52.110;5.548;2024-02-26T08:54:42;9.30;99.90
24085;DHT22;12268;52.110;5.548;2024-02-26T08:57:08;9.50;99.90
24085;DHT22;12268;52.110;5.548;2024-02-26T08:59:33;9.70;99.90
24085;DHT22;12268;52.110;5.548;2024-02-26T09:01:59;9.50;99.90
24085;DHT22;12268;52.110;5.548;2024-02-26T09:04:25;9.60;99.90
24085;DHT22;12268;52.110;5.548;2024-02-26T09:06:51;9.40;99.90
24085;DHT22;12268;52.110;5.548;2024-02-26T09:09:17;9.50;99.90
24085;DHT22;12268;52.110;5.548;2024-02-26T09:11:43;9.70;99.90
24085;DHT22;12268;52.110;5.548;2024-02-26T09:14:08;9.50;99.90
24085;DHT22;12268;52.110;5.548;2024-02-26T09:16:34;9.40;99.90
24085;DHT22;12268;52.110;5.548;2024-02-26T09:18:59;9.60;99.90
24085;DHT22;12268;52.110;5.548;2024-02-26T09:21:25;9.70;99.90
24085;DHT22;12268;52.110;5.548;2024-02-26T09:23:52;9.60;99.90
24085;DHT22;12268;52.110;5.548;2024-02-26T09:26:18;9.50;99.90
24085;DHT22;12268;52.110;5.548;2024-02-26T09:39:05;9.80;99.90
24085;DHT22;12268;52.110;5.548;2024-02-26T09:41:32;9.40;99.90
24085;DHT22;12268;52.110;5.548;2024-02-26T09:43:58;9.60;99.90
24085;DHT22;12268;52.110;5.548;2024-02-26T09:46:26;9.50;99.90
24085;DHT22;12268;52.110;5.548;2024-02-26T09:48:52;9.50;99.90
24085;DHT22;12268;52.110;5.548;2024-02-26T09:53:53;9.60;99.90
24085;DHT22;12268;52.110;5.548;2024-02-26T09:56:19;9.70;99.90
24085;DHT22;12268;52.110;5.548;2024-02-26T09:58:45;9.90;99.90
24085;DHT22;12268;52.110;5.548;2024-02-26T10:01:17;9.80;99.90
24085;DHT22;12268;52.110;5.548;2024-02-26T10:03:44;9.60;99.90
24085;DHT22;12268;52.110;5.548;2024-02-26T10:06:13;9.80;99.90
24085;DHT22;12268;52.110;5.548;2024-02-26T10:08:39;9.90;99.90
24085;DHT22;12268;52.110;5.548;2024-02-26T10:11:07;9.90;99.90
24085;DHT22;12268;52.110;5.548;2024-02-26T10:13:34;10.10;99.90
24085;DHT22;12268;52.110;5.548;2024-02-26T10:16:00;9.60;99.90
24085;DHT22;12268;52.110;5.548;2024-02-26T10:18:47;9.50;99.90
24085;DHT22;12268;52.110;5.548;2024-02-26T10:21:13;9.80;99.90
24085;DHT22;12268;52.110;5.548;2024-02-26T10:23:43;9.90;99.90
24085;DHT22;12268;52.110;5.548;2024-02-26T10:26:10;9.90;99.90
24085;DHT22;12268;52.110;5.548;2024-02-26T10:28:37;10.00;99.90
24085;DHT22;12268;52.110;5.548;2024-02-26T10:31:03;10.00;99.90
24085;DHT22;12268;52.110;5.548;2024-02-26T10:33:28;10.00;99.90
24085;DHT22;12268;52.110;5.548;2024-02-26T10:35:54;9.90;99.90
24085;DHT22;12268;52.110;5.548;2024-02-26T10:38:20;9.90;99.90
24085;DHT22;12268;52.110;5.548;2024-02-26T10:40:46;10.00;99.90
24085;DHT22;12268;52.110;5.548;2024-02-26T10:43:14;10.00;99.90
24085;DHT22;12268;52.110;5.548;2024-02-26T10:45:42;10.30;99.90
24085;DHT22;12268;52.110;5.548;2024-02-26T10:48:13;10.30;99.90
24085;DHT22;12268;52.110;5.548;2024-02-26T10:50:39;10.40;99.90
24085;DHT22;12268;52.110;5.548;2024-02-26T10:53:21;10.20;99.90
24085;DHT22;12268;52.110;5.548;2024-02-26T10:55:57;10.30;99.90
24085;DHT22;12268;52.110;5.548;2024-02-26T10:58:24;10.50;99.90
24085;DHT22;12268;52.110;5.548;2024-02-26T11:00:51;10.50;99.90
24085;DHT22;12268;52.110;5.548;2024-02-26T11:03:18;10.50;99.90
24085;DHT22;12268;52.110;5.548;2024-02-26T11:05:49;10.50;99.90
24085;DHT22;12268;52.110;5.548;2024-02-26T11:08:19;10.20;99.90
24085;DHT22;12268;52.110;5.548;2024-02-26T11:10:52;10.20;99.90
24085;DHT22;12268;52.110;5.548;2024-02-26T11:13:19;9.80;99.90
24085;DHT22;12268;52.110;5.548;2024-02-26T11:15:48;10.00;99.90
24085;DHT22;12268;52.110;5.548;2024-02-26T11:18:16;9.60;99.90
24085;DHT22;12268;52.110;5.548;2024-02-26T11:20:45;9.80;99.90
24085;DHT22;12268;52.110;5.548;2024-02-26T11:23:11;9.80;99.90
24085;DHT22;12268;52.110;5.548;2024-02-26T11:25:37;9.90;99.90
24085;DHT22;12268;52.110;5.548;2024-02-26T11:28:09;10.00;99.90
24085;DHT22;12268;52.110;5.548;2024-02-26T11:30:39;10.10;99.90
24085;DHT22;12268;52.110;5.548;2024-02-26T11:33:09;9.90;99.90
24085;DHT22;12268;52.110;5.548;2024-02-26T11:35:39;10.00;99.90
24085;DHT22;12268;52.110;5.548;2024-02-26T11:38:04;10.20;99.90
24085;DHT22;12268;52.110;5.548;2024-02-26T11:40:32;10.00;99.90
24085;DHT22;12268;52.110;5.548;2024-02-26T11:42:58;10.20;99.90
24085;DHT22;12268;52.110;5.548;2024-02-26T11:50:39;10.00;99.90
24085;DHT22;12268;52.110;5.548;2024-02-26T11:53:45;9.90;99.90
24085;DHT22;12268;52.110;5.548;2024-02-26T11:58:43;10.30;99.90
24085;DHT22;12268;52.110;5.548;2024-02-26T12:01:43;10.40;99.90
24085;DHT22;12268;52.110;5.548;2024-02-26T12:04:13;10.40;99.90
24085;DHT22;12268;52.110;5.548;2024-02-26T12:06:54;10.30;99.90
24085;DHT22;12268;52.110;5.548;2024-02-26T12:12:03;10.10;99.90
24085;DHT22;12268;52.110;5.548;2024-02-26T12:14:29;9.80;99.90
24085;DHT22;12268;52.110;5.548;2024-02-26T12:16:55;10.00;99.90
24085;DHT22;12268;52.110;5.548;2024-02-26T12:19:22;9.90;99.90
24085;DHT22;12268;52.110;5.548;2024-02-26T12:21:52;10.10;99.90
24085;DHT22;12268;52.110;5.548;2024-02-26T12:24:20;10.20;99.90
24085;DHT22;12268;52.110;5.548;2024-02-26T12:26:46;10.30;99.90
24085;DHT22;12268;52.110;5.548;2024-02-26T12:29:12;10.40;99.90
24085;DHT22;12268;52.110;5.548;2024-02-26T12:31:39;10.40;99.90
24085;DHT22;12268;52.110;5.548;2024-02-26T12:34:06;10.40;99.90
24085;DHT22;12268;52.110;5.548;2024-02-26T12:36:33;10.60;99.90
24085;DHT22;12268;52.110;5.548;2024-02-26T12:39:03;10.40;99.90
24085;DHT22;12268;52.110;5.548;2024-02-26T12:41:32;10.40;99.90
24085;DHT22;12268;52.110;5.548;2024-02-26T12:43:57;10.50;99.90
24085;DHT22;12268;52.110;5.548;2024-02-26T12:46:24;10.50;99.90
24085;DHT22;12268;52.110;5.548;2024-02-26T12:48:49;10.50;99.90
24085;DHT22;12268;52.110;5.548;2024-02-26T12:51:16;10.30;99.90
24085;DHT22;12268;52.110;5.548;2024-02-26T12:53:43;10.20;99.90
24085;DHT22;12268;52.110;5.548;2024-02-26T12:56:10;10.30;99.90
24085;DHT22;12268;52.110;5.548;2024-02-26T12:58:38;10.50;99.90
24085;DHT22;12268;52.110;5.548;2024-02-26T13:01:05;10.60;99.90
24085;DHT22;12268;52.110;5.548;2024-02-26T13:03:33;10.60;99.90
24085;DHT22;12268;52.110;5.548;2024-02-26T13:06:00;10.60;99.90
24085;DHT22;12268;52.110;5.548;2024-02-26T13:08:26;10.60;99.90
24085;DHT22;12268;52.110;5.548;2024-02-26T13:10:51;10.60;99.90
24085;DHT22;12268;52.110;5.548;2024-02-26T13:13:18;10.70;99.90
24085;DHT22;12268;52.110;5.548;2024-02-26T13:15:45;10.70;99.90
24085;DHT22;12268;52.110;5.548;2024-02-26T13:18:13;10.60;99.90
24085;DHT22;12268;52.110;5.548;2024-02-26T13:20:40;10.70;99.90
24085;DHT22;12268;52.110;5.548;2024-02-26T13:23:11;10.40;99.90
24085;DHT22;12268;52.110;5.548;2024-02-26T13:25:38;10.70;99.90
24085;DHT22;12268;52.110;5.548;2024-02-26T13:28:12;10.20;99.90
24085;DHT22;12268;52.110;5.548;2024-02-26T13:30:39;10.30;99.90
24085;DHT22;12268;52.110;5.548;2024-02-26T13:33:11;10.70;99.90
24085;DHT22;12268;52.110;5.548;2024-02-26T13:35:38;11.00;99.90
24085;DHT22;12268;52.110;5.548;2024-02-26T13:38:05;11.00;99.90
24085;DHT22;12268;52.110;5.548;2024-02-26T13:40:31;11.00;99.90
24085;DHT22;12268;52.110;5.548;2024-02-26T13:42:57;11.10;99.90
24085;DHT22;12268;52.110;5.548;2024-02-26T13:45:23;11.20;99.90
24085;DHT22;12268;52.110;5.548;2024-02-26T13:47:48;11.00;99.90
24085;DHT22;12268;52.110;5.548;2024-02-26T13:50:14;11.20;99.90
24085;DHT22;12268;52.110;5.548;2024-02-26T13:52:40;11.20;99.90
24085;DHT22;12268;52.110;5.548;2024-02-26T13:55:06;11.20;99.90
24085;DHT22;12268;52.110;5.548;2024-02-26T13:57:32;11.20;99.90
24085;DHT22;12268;52.110;5.548;2024-02-26T13:59:58;11.30;99.90
24085;DHT22;12268;52.110;5.548;2024-02-26T14:02:24;11.20;99.90
24085;DHT22;12268;52.110;5.548;2024-02-26T14:04:49;11.40;99.90
24085;DHT22;12268;52.110;5.548;2024-02-26T14:07:15;11.30;99.90
24085;DHT22;12268;52.110;5.548;2024-02-26T14:09:42;11.30;99.90
24085;DHT22;12268;52.110;5.548;2024-02-26T14:12:08;11.30;99.90
24085;DHT22;12268;52.110;5.548;2024-02-26T14:14:34;11.30;99.90
24085;DHT22;12268;52.110;5.548;2024-02-26T14:17:03;11.10;99.90
24085;DHT22;12268;52.110;5.548;2024-02-26T14:19:29;11.30;99.90
24085;DHT22;12268;52.110;5.548;2024-02-26T14:21:55;11.10;99.90
24085;DHT22;12268;52.110;5.548;2024-02-26T14:24:20;11.20;99.90
24085;DHT22;12268;52.110;5.548;2024-02-26T14:26:46;11.20;99.90
24085;DHT22;12268;52.110;5.548;2024-02-26T14:29:11;11.20;99.90
24085;DHT22;12268;52.110;5.548;2024-02-26T14:31:37;11.10;99.90
24085;DHT22;12268;52.110;5.548;2024-02-26T14:34:03;10.90;99.90
24085;DHT22;12268;52.110;5.548;2024-02-26T14:36:28;11.00;99.90
24085;DHT22;12268;52.110;5.548;2024-02-26T14:38:54;10.80;99.90
24085;DHT22;12268;52.110;5.548;2024-02-26T14:41:20;10.80;99.90
24085;DHT22;12268;52.110;5.548;2024-02-26T14:43:46;10.70;99.90
24085;DHT22;12268;52.110;5.548;2024-02-26T14:46:11;10.80;99.90
24085;DHT22;12268;52.110;5.548;2024-02-26T14:48:37;11.00;99.90
24085;DHT22;12268;52.110;5.548;2024-02-26T14:51:11;11.10;99.90
24085;DHT22;12268;52.110;5.548;2024-02-26T14:53:37;11.10;99.90
24085;DHT22;12268;52.110;5.548;2024-02-26T14:56:03;10.80;99.90
24085;DHT22;12268;52.110;5.548;2024-02-26T14:58:28;10.70;99.90
24085;DHT22;12268;52.110;5.548;2024-02-26T15:00:54;10.70;99.90
24085;DHT22;12268;52.110;5.548;2024-02-26T15:03:20;10.30;99.90
24085;DHT22;12268;52.110;5.548;2024-02-26T15:05:45;10.30;99.90
24085;DHT22;12268;52.110;5.548;2024-02-26T15:08:11;10.50;99.90
24085;DHT22;12268;52.110;5.548;2024-02-26T15:10:40;10.80;99.90
24085;DHT22;12268;52.110;5.548;2024-02-26T15:13:12;10.80;99.90
24085;DHT22;12268;52.110;5.548;2024-02-26T15:15:38;10.80;99.90
24085;DHT22;12268;52.110;5.548;2024-02-26T15:18:04;10.90;99.90
24085;DHT22;12268;52.110;5.548;2024-02-26T15:20:30;10.90;99.90
24085;DHT22;12268;52.110;5.548;2024-02-26T15:22:55;10.90;99.90
24085;DHT22;12268;52.110;5.548;2024-02-26T15:25:21;10.70;99.90
24085;DHT22;12268;52.110;5.548;2024-02-26T15:27:47;10.90;99.90
24085;DHT22;12268;52.110;5.548;2024-02-26T15:30:13;10.90;99.90
24085;DHT22;12268;52.110;5.548;2024-02-26T15:32:38;10.80;99.90
24085;DHT22;12268;52.110;5.548;2024-02-26T15:35:04;10.80;99.90
24085;DHT22;12268;52.110;5.548;2024-02-26T15:37:30;10.90;99.90
24085;DHT22;12268;52.110;5.548;2024-02-26T15:39:56;10.90;99.90
24085;DHT22;12268;52.110;5.548;2024-02-26T15:42:21;10.90;99.90
24085;DHT22;12268;52.110;5.548;2024-02-26T15:44:48;11.00;99.90
24085;DHT22;12268;52.110;5.548;2024-02-26T15:47:13;11.00;99.90
24085;DHT22;12268;52.110;5.548;2024-02-26T15:49:39;10.90;99.90
24085;DHT22;12268;52.110;5.548;2024-02-26T17:11:47;9.70;99.90
24085;DHT22;12268;52.110;5.548;2024-02-26T17:14:13;9.70;99.90
24085;DHT22;12268;52.110;5.548;2024-02-26T17:16:40;9.40;99.90
24085;DHT22;12268;52.110;5.548;2024-02-26T17:19:06;9.50;99.90
24085;DHT22;12268;52.110;5.548;2024-02-26T17:21:32;9.50;99.90